Tiempo atmosférico en la estación meteorológica de Mogán, Puerto, Las Palmas (10 m.)



Fecha
DESCASC
Temp. máxima en grados centígrados (hora)
DESCASC
Temp. mínima en grados centígrados (hora)
DESCASC
Temp. media en grados centígrados
DESCASC
Racha de viento máxima en m/sg (hora)
DESCASC
Velocidad máxima media en intervalos de 10 minutos(hora)
DESCASC
Precipitaciones diarias en mm
DESCASC
Precipitaciones de 00:00 a 06:00 en mm
DESCASC
Precipitaciones de 06:00 a 12:00 en mm
DESCASC
Precipitaciones de 12:00 a 18:00 en mm
DESCASC
Precipitaciones de 18:00 a 24:00 en mm
DESCASC
13-06-2019 23.7 (09:20) 18.8 (06:40) 21.3 8.33 (18:50) 6.94 (18:50) 0 0 0 0 0
12-06-2019 25.2 (17:20) 19.4 (08:00) 22.3 10.28 (18:40) 8.61 (18:40) 0 0 0 0 0
11-06-2019 25.7 (14:20) 18.4 (07:00) 22.1 7.78 (14:50) 6.39 (15:00) 0 0 0 0 0
10-06-2019 24.2 (17:00) 18.1 (07:20) 21.2 6.39 (09:20) 5.28 (17:20) 0 0 0 0 0
09-06-2019 24.5 (16:00) 20.3 (00:00) 22.4 6.39 (17:50) 4.72 (17:50) 0 0 0 0 0
08-06-2019 23.8 (14:10) 19 (00:00) 21.4 15.83 (19:40) 6.11 (19:50) 0 0 0 0 0
07-06-2019 25.5 (15:00) 18 (00:00) 21.8 8.33 (13:40) 6.11 (13:40) 0 0 0 0 0
06-06-2019 24.9 (12:40) 20.1 (00:00) 22.5 8.06 (15:30) 6.39 (15:30) 0 0 0 0 0
05-06-2019 25.8 (15:50) 19.7 (00:00) 22.8 9.72 (16:50) 7.78 (16:50) 0 0 0 0 0
04-06-2019 28 (13:10) 20 (00:00) 24 7.22 (05:20) 5.83 (19:40) 0 0 0 0 0
03-06-2019 30.1 (13:30) 20.6 (00:00) 25.4 5.28 (17:00) 4.44 (17:10) 0 0 0 0 0
02-06-2019 24.5 (16:10) 18.9 (00:00) 21.7 8.33 (17:20) 7.78 (17:20) 0 0 0 0 0
01-06-2019 24.3 (18:20) 19.6 (00:00) 21.9 10 (07:40) 7.78 (19:50) 0 0 0 0 0
31-05-2019 24.4 (12:00) 18.1 (00:00) 21.3 8.89 (13:40) 7.78 (13:40) 0 0 0 0 0
30-05-2019 23.3 (15:20) 19.3 (00:00) 21.3 7.78 (13:30) 6.11 (13:20) 0 0 0 0 0
29-05-2019 -- (--) -- (--) -- 8.33 (17:30) 7.22 (17:30) -- 0 -- 0 0
28-05-2019 26.8 (09:40) 16.6 (00:00) 21.7 8.06 (22:30) 5.28 (16:00) 0 0 0 0 0
27-05-2019 27.3 (17:20) 14.6 (00:00) 20.9 7.22 (16:40) 6.11 (18:20) 0 0 0 0 0
26-05-2019 26.4 (13:40) 15.7 (00:00) 21 7.78 (01:10) 6.11 (01:20) 0 0 0 0 0
25-05-2019 25.6 (12:10) 16.7 (00:00) 21.2 7.22 (01:00) 6.39 (01:00) 0 0 0 0 0
24-05-2019 27.4 (16:00) 17.2 (00:00) 22.3 4.17 (10:10) 3.61 (10:10) 0 0 0 0 0
23-05-2019 25.2 (09:30) 16 (00:00) 20.6 7.78 (20:20) 6.39 (15:40) 0 0 0 0 0
22-05-2019 25.7 (16:10) 15.7 (00:00) 20.7 5.83 (21:10) 5.28 (22:50) 0 0 0 0 0
21-05-2019 24.4 (15:30) 16.1 (07:40) 20.3 8.89 (11:10) 7.78 (11:10) 0 0 0 0 0
20-05-2019 25.3 (13:40) 16 (07:40) 20.6 8.89 (15:40) 7.22 (15:40) 0 0 0 0 0
19-05-2019 25.7 (11:30) 17.1 (00:00) 21.4 10 (14:30) 8.06 (14:30) 0 0 0 0 0
18-05-2019 25.7 (14:00) 16.7 (00:00) 21.2 7.78 (23:20) 5.56 (17:30) 0 0 0 0 0
17-05-2019 -- (--) -- (--) -- 8.33 (00:10) 5.83 (00:30) 0 0 0 0 0

Gráficas

Temp. máximas Temp. mínimas Temp. medias Precipitaciones Rachas de viento máximas Velocidades máximas media en intervalos de 10 minutos

Datos horarios

Fecha y hora oficial Temperatura (ºC) Velocidad del viento (km/h) Dirección del viento Racha (km/h) Dirección de racha Precipitación (mm) Presión (hPa) Tendencia (hPa) Humedad (%)
2019-06-15 23:00:00 20.5 7 Sudoeste 14 Sur 0 -- -- 54
2019-06-15 22:00:00 20.4 9 Sur 15 Sur 0 -- -- 54
2019-06-15 21:00:00 20.4 15 Sudeste 21 Sudeste 0 -- -- 53
2019-06-15 20:00:00 21.2 15 Sudeste 19 Sudeste 0 -- -- 49
2019-06-15 19:00:00 21.8 15 Sudeste 20 Sudeste 0 -- -- 47
2019-06-15 18:00:00 22.1 8 Sudeste 15 Sur 0 -- -- 46
2019-06-15 17:00:00 22.7 8 Sudeste 15 Sur 0 -- -- 45
2019-06-15 16:00:00 23.3 8 Sur 14 Sudoeste 0 -- -- 42
2019-06-15 15:00:00 23 8 Sudoeste 18 Oeste 0 -- -- 40
2019-06-15 14:00:00 22.8 11 Oeste 18 Oeste 0 -- -- 42
2019-06-15 13:00:00 22.1 12 Oeste 19 Oeste 0 -- -- 44
2019-06-15 12:00:00 22.8 13 Oeste 18 Oeste 0 -- -- 44
2019-06-15 11:00:00 22 11 Oeste 17 Oeste 0 -- -- 45
2019-06-15 10:00:00 21.3 6 Oeste 16 Noroeste 0 -- -- 47
2019-06-15 09:00:00 20.2 11 Oeste 17 Oeste 0 -- -- 53
2019-06-15 08:00:00 18.9 5 Norte 11 Norte 0 -- -- 51
2019-06-15 07:00:00 18.7 8 Norte 12 Norte 0 -- -- 51
2019-06-15 06:00:00 18.2 10 Norte 14 Norte 0 -- -- 51
2019-06-15 05:00:00 18.5 10 Norte 14 Norte 0 -- -- 51
2019-06-15 04:00:00 18.5 10 Norte 15 Nordeste 0 -- -- 51
2019-06-15 03:00:00 18.9 9 Norte 14 Norte 0 -- -- 54
2019-06-15 02:00:00 18.6 11 Norte 13 Norte 0 -- -- 55
2019-06-15 01:00:00 19.1 8 Nordeste 10 Nordeste 0 -- -- 54
2019-06-15 00:00:00 19.5 2 Norte 11 Sudoeste 0 -- -- 54
2019-06-14 23:00:00 20 7 Sudoeste 11 Oeste 0 -- -- 54
2019-06-14 22:00:00 19.9 6 Sudoeste 13 Sudoeste 0 -- -- 53
2019-06-14 21:00:00 20.3 9 Sudoeste 19 Oeste 0 -- -- 52
2019-06-14 20:00:00 21.2 7 Oeste 14 Oeste 0 -- -- 50
2019-06-14 19:00:00 20.7 7 Sudeste 18 Sudeste 0 -- -- 53
2019-06-14 18:00:00 20.7 10 Sudeste 23 Sudeste 0 -- -- 53
2019-06-14 17:00:00 20.6 16 Sudeste 22 Sudeste 0 -- -- 53
2019-06-14 16:00:00 21.5 18 Sudeste 23 Sudeste 0 -- -- 52
2019-06-14 15:00:00 22.1 23 Sudeste 27 Sudeste 0 -- -- 49
2019-06-14 14:00:00 22.4 15 Sudeste 19 Sudeste 0 -- -- 47
2019-06-14 13:00:00 21.9 10 Sur 15 Sur 0 -- -- 46
2019-06-14 12:00:00 22.4 8 Sur 15 Oeste 0 -- -- 45
2019-06-14 11:00:00 22 8 Oeste 14 Oeste 0 -- -- 48
2019-06-14 10:00:00 22 4 Sudoeste 8 Sudoeste 0 -- -- 47
2019-06-14 09:00:00 20.6 6 Nordeste 15 Norte 0 -- -- 44
2019-06-14 08:00:00 18.4 11 Norte 17 Norte 0 -- -- 46
2019-06-14 07:00:00 18.2 12 Norte 15 Norte 0 -- -- 47
2019-06-14 06:00:00 18.3 12 Norte 16 Norte 0 -- -- 50
2019-06-14 05:00:00 19 9 Norte 11 Norte 0 -- -- 52
2019-06-14 04:00:00 19.3 5 Nordeste 11 Sudeste 0 -- -- 51
2019-06-14 03:00:00 19.8 4 Nordeste 13 Nordeste 0 -- -- 51
2019-06-14 02:00:00 19.7 7 Norte 10 Norte 0 -- -- 53
2019-06-14 01:00:00 20.3 5 Nordeste 12 Nordeste 0 -- -- 52
2019-06-14 00:00:00 20.4 4 Sur 16 Oeste 0 -- -- 53
2019-06-13 23:00:00 20.6 9 Oeste 16 Oeste 0 -- -- 52
2019-06-13 22:00:00 21 8 Oeste 14 Sudoeste 0 -- -- 51
2019-06-13 21:00:00 21.2 8 Sur 15 Sudeste 0 -- -- 50
2019-06-13 20:00:00 22 16 Sudeste 29 Este 0 -- -- 48
2019-06-13 19:00:00 22.4 24 Sudeste 30 Sudeste 0 -- -- 49
2019-06-13 18:00:00 22.2 17 Sudeste 29 Sur 0 -- -- 49
2019-06-13 17:00:00 23.4 15 Sur 24 Sur 0 -- -- 46
2019-06-13 16:00:00 22.5 15 Sudeste 25 Sur 0 -- -- 48
2019-06-13 15:00:00 21.8 15 Sur 24 Sur 0 -- -- 48
2019-06-13 14:00:00 21.8 15 Sudeste 22 Sur 0 -- -- 50
2019-06-13 13:00:00 21.6 18 Sur 23 Sur 0 -- -- 49
2019-06-13 12:00:00 21.3 20 Sur 26 Sudeste 0 -- -- 48
2019-06-13 11:00:00 22.2 15 Sudeste 18 Sudeste 0 -- -- 44
2019-06-13 10:00:00 21.1 10 Sur 14 Sudeste 0 -- -- 46
2019-06-13 09:00:00 21.7 4 Nordeste 7 Norte 0 -- -- 40
2019-06-13 08:00:00 19.1 6 Norte 9 Norte 0 -- -- 44
2019-06-13 07:00:00 19.1 5 Norte 8 Norte 0 -- -- 44
2019-06-13 06:00:00 19.5 5 Norte 15 Noroeste 0 -- -- 43
2019-06-13 05:00:00 19.6 6 Norte 12 Nordeste 0 -- -- 40
2019-06-13 04:00:00 20.3 6 Nordeste 16 Norte 0 -- -- 40
2019-06-13 03:00:00 20.5 7 Nordeste 19 Este 0 -- -- 43
2019-06-13 02:00:00 21 6 Nordeste 20 Sudeste 0 -- -- 41
2019-06-13 01:00:00 21 6 Sudeste 9 Sudeste 0 -- -- 51
2019-06-13 00:00:00 21 3 Nordeste 6 Norte 0 -- -- 53
2019-06-12 23:00:00 21.2 3 Norte 7 Norte 0 -- -- 53
2019-06-12 22:00:00 21.1 4 Sudeste 21 Sudoeste 0 -- -- 56
2019-06-12 21:00:00 21.4 15 Oeste 19 Oeste 0 -- -- 57
2019-06-12 20:00:00 22.2 8 Sudoeste 19 Sudeste 0 -- -- 53
2019-06-12 19:00:00 21.6 18 Sudeste 37 Sudeste 0 -- -- 56
2019-06-12 18:00:00 21.9 22 Sudeste 27 Sudeste 0 -- -- 56
2019-06-12 17:00:00 24.9 13 Sudeste 15 Sudeste 0 -- -- 49
2019-06-12 16:00:00 23.8 9 Sudoeste 26 Sur 0 -- -- 53
2019-06-12 15:00:00 21.5 21 Sur 27 Sur 0 -- -- 60
2019-06-12 14:00:00 23.1 15 Sur 20 Sudoeste 0 -- -- 53
2019-06-12 13:00:00 22.3 14 Sur 20 Sudeste 0 -- -- 57
2019-06-12 12:00:00 22 15 Sudeste 20 Sudeste 0 -- -- 59
2019-06-12 11:00:00 21.8 9 Sudeste 13 Sudeste 0 -- -- 57
2019-06-12 10:00:00 23.6 9 Sudeste 15 Sudeste 0 -- -- 54
2019-06-12 09:00:00 22.6 5 Este 13 Norte 0 -- -- 56
2019-06-12 08:00:00 19.5 9 Norte 12 Norte 0 -- -- 61
2019-06-12 07:00:00 19.7 3 Norte 10 Este 0 -- -- 61
2019-06-12 06:00:00 20.2 9 Sudeste 13 Este 0 -- -- 61
2019-06-12 05:00:00 20.5 5 Nordeste 9 Este 0 -- -- 60
2019-06-12 04:00:00 20.8 4 Sudeste 18 Este 0 -- -- 60
2019-06-12 03:00:00 20.8 13 Sur 21 Sur 0 -- -- 59
2019-06-12 02:00:00 20.8 13 Este 23 Este 0 -- -- 58
2019-06-12 01:00:00 21.2 11 Este 25 Este 0 -- -- 58
2019-06-12 00:00:00 21.1 10 Este 16 Este 0 -- -- 61
2019-06-11 23:00:00 21.1 10 Sur 17 Sur 0 -- -- 62
2019-06-11 22:00:00 21.2 8 Sudeste 14 Este 0 -- -- 60
2019-06-11 21:00:00 21.7 0 Calma 14 Sur 0 -- -- 58
2019-06-11 20:00:00 22.4 10 Sur 24 Sudeste 0 -- -- 57
2019-06-11 19:00:00 23.2 18 Sudeste 23 Sudeste 0 -- -- 54
2019-06-11 18:00:00 23.7 8 Sur 24 Sudoeste 0 -- -- 52
2019-06-11 17:00:00 22.6 17 Sur 26 Sudeste 0 -- -- 55
2019-06-11 16:00:00 22.8 21 Sudeste 27 Sudeste 0 -- -- 52
2019-06-11 15:00:00 23.3 23 Sudeste 28 Sudeste 0 -- -- 50
2019-06-11 14:00:00 24.7 5 Sur 25 Sudoeste 0 -- -- 48
2019-06-11 13:00:00 22.2 13 Sudoeste 23 Sudeste 0 -- -- 49
2019-06-11 12:00:00 23 20 Sudeste 24 Sudeste 0 -- -- 49
2019-06-11 11:00:00 22 11 Sudeste 18 Sudeste 0 -- -- 50
2019-06-11 10:00:00 22.4 8 Sur 17 Sudeste 0 -- -- 51
2019-06-11 09:00:00 21.6 9 Sudeste 24 Sudeste 0 -- -- 53
2019-06-11 08:00:00 20 7 Nordeste 14 Este 0 -- -- 58
2019-06-11 07:00:00 18.5 11 Norte 14 Norte 0 -- -- 57
2019-06-11 06:00:00 18.7 6 Norte 10 Norte 0 -- -- 55
2019-06-11 05:00:00 19.9 3 Este 11 Nordeste 0 -- -- 59
2019-06-11 04:00:00 20.1 6 Nordeste 16 Este 0 -- -- 59
2019-06-11 03:00:00 20.4 9 Sudeste 13 Sudeste 0 -- -- 60
2019-06-11 02:00:00 20.4 3 Sudeste 16 Sudeste 0 -- -- 58
2019-06-11 01:00:00 20.8 8 Este 14 Este 0 -- -- 57
2019-06-11 00:00:00 20.6 8 Este 13 Sudeste 0 -- -- 59
2019-06-10 23:00:00 20.7 6 Sur 9 Sudeste 0 -- -- 59
2019-06-10 22:00:00 21 7 Sudeste 10 Sudeste 0 -- -- 56
2019-06-10 21:00:00 21.2 4 Sur 14 Sur 0 -- -- 54
2019-06-10 20:00:00 22.2 9 Sur 15 Sur 0 -- -- 52
2019-06-10 19:00:00 23 9 Sur 15 Sur 0 -- -- 50
2019-06-10 18:00:00 22.6 12 Sudeste 22 Sudeste 0 -- -- 51
2019-06-10 17:00:00 24.1 16 Sudeste 21 Sudeste 0 -- -- 47
2019-06-10 16:00:00 23.6 12 Sur 20 Sudoeste 0 -- -- 48
2019-06-10 15:00:00 22.4 13 Sudoeste 17 Sudoeste 0 -- -- 50
2019-06-10 14:00:00 22.3 13 Sudoeste 16 Sur 0 -- -- 50
2019-06-10 13:00:00 23.1 9 Sur 16 Sur 0 -- -- 48
2019-06-10 12:00:00 22.4 10 Sur 17 Sur 0 -- -- 52
2019-06-10 11:00:00 21.5 13 Sudoeste 16 Sur 0 -- -- 53
2019-06-10 10:00:00 21.6 10 Sur 23 Sudeste 0 -- -- 54
2019-06-10 09:00:00 21.2 7 Nordeste 17 Norte 0 -- -- 50
2019-06-10 08:00:00 18.5 12 Norte 17 Norte 0 -- -- 53
2019-06-10 07:00:00 18.3 11 Norte 15 Norte 0 -- -- 54
2019-06-10 06:00:00 19.8 5 Nordeste 16 Este 0 -- -- 57
2019-06-10 05:00:00 18.9 10 Norte 13 Norte 0 -- -- 55
2019-06-10 04:00:00 19.1 9 Norte 14 Este 0 -- -- 56
2019-06-10 03:00:00 20.2 9 Este 15 Nordeste 0 -- -- 58
2019-06-10 02:00:00 20.2 9 Este 14 Sudeste 0 -- -- 57
2019-06-10 01:00:00 20.4 8 Este 13 Sudeste 0 -- -- 57
2019-06-10 00:00:00 20.4 5 Sudeste 15 Sur 0 -- -- 56
2019-06-09 23:00:00 20.5 10 Sur 16 Sur 0 -- -- 58
2019-06-09 22:00:00 20.9 9 Sur 14 Sur 0 -- -- 55
2019-06-09 21:00:00 21 11 Sur 16 Sur 0 -- -- 54
2019-06-09 20:00:00 22.4 11 Sur 17 Sur 0 -- -- 49
2019-06-09 19:00:00 21.8 12 Sur 22 Sur 0 -- -- 49
2019-06-09 18:00:00 22.6 17 Sur 23 Sur 0 -- -- 47
2019-06-09 17:00:00 22.3 12 Sudeste 17 Sudeste 0 -- -- 46
2019-06-09 16:00:00 24.4 8 Sur 18 Sudoeste 0 -- -- 41
2019-06-09 15:00:00 23.3 13 Sur 21 Sur 0 -- -- 43
2019-06-09 14:00:00 22.2 14 Sudoeste 17 Sudoeste 0 -- -- 44
2019-06-09 13:00:00 22.9 9 Sudoeste 14 Sudoeste 0 -- -- 42
2019-06-09 12:00:00 23.1 7 Sudoeste 14 Oeste 0 -- -- 41
2019-06-09 11:00:00 22.6 9 Sudoeste 17 Sudoeste 0 -- -- 43
2019-06-09 10:00:00 22.1 10 Oeste 15 Oeste 0 -- -- 43
2019-06-09 09:00:00 22.1 4 Oeste 12 Norte 0 -- -- 42
2019-06-09 08:00:00 20.5 8 Norte 13 Norte 0 -- -- 43
2019-06-09 07:00:00 20.6 2 Oeste 6 Oeste 0 -- -- 50
2019-06-09 06:00:00 20.6 5 Sudoeste 12 Sudoeste 0 -- -- 50
2019-06-09 05:00:00 20.7 4 Oeste 6 Oeste 0 -- -- 50
2019-06-09 04:00:00 20.8 4 Sudoeste 19 Sudoeste 0 -- -- 51
2019-06-09 03:00:00 20.6 16 Sudoeste 22 Sudoeste 0 -- -- 53
2019-06-09 02:00:00 20.8 14 Sudoeste 19 Sudoeste 0 -- -- 53
2019-06-09 01:00:00 20.9 10 Sur 18 Sur 0 -- -- 55
2019-06-09 00:00:00 20.8 15 Sudoeste 28 Oeste 0 -- -- 57
2019-06-08 23:00:00 20.7 20 Oeste 28 Oeste 0 -- -- 61
2019-06-08 22:00:00 21.1 13 Sudoeste 19 Sudoeste 0 -- -- 58
2019-06-08 21:00:00 21.1 8 Sudeste 24 Sudeste 0 -- -- 58
2019-06-08 20:00:00 21.4 20 Sudeste 57 Sudeste 0 -- -- 56
2019-06-08 19:00:00 21.6 19 Sudeste 24 Sur 0 -- -- 55
2019-06-08 18:00:00 22.9 18 Sur 23 Sur 0 -- -- 53
2019-06-08 17:00:00 22.4 18 Sudoeste 24 Sur 0 -- -- 56
2019-06-08 16:00:00 23.5 15 Sur 23 Sur 0 -- -- 53
2019-06-08 15:00:00 22.2 14 Sur 20 Sur 0 -- -- 54
2019-06-08 14:00:00 23.4 12 Sur 17 Sudoeste 0 -- -- 52
2019-06-08 13:00:00 22.9 6 Sudoeste 12 Sudoeste 0 -- -- 52
2019-06-08 12:00:00 22 8 Sudoeste 13 Sur 0 -- -- 57
2019-06-08 11:00:00 22 2 Sur 9 Sudoeste 0 -- -- 60
2019-06-08 10:00:00 22.1 6 Sudoeste 9 Oeste 0 -- -- 58
2019-06-08 09:00:00 21.3 5 Oeste 11 Norte 0 -- -- 59
2019-06-08 08:00:00 19.9 8 Norte 13 Norte 0 -- -- 56
2019-06-08 07:00:00 19.2 8 Norte 10 Norte 0 -- -- 58
2019-06-08 06:00:00 19.4 6 Norte 9 Norte 0 -- -- 57
2019-06-08 05:00:00 19.9 6 Norte 10 Norte 0 -- -- 57
2019-06-08 04:00:00 20 5 Norte 8 Norte 0 -- -- 57
2019-06-08 03:00:00 20.8 4 Este 21 Este 0 -- -- 58
2019-06-08 02:00:00 20.7 10 Este 20 Este 0 -- -- 61
2019-06-08 01:00:00 20.7 13 Sudeste 16 Sudeste 0 -- -- 61
2019-06-08 00:00:00 20.4 4 Este 8 Este 0 -- -- 62
2019-06-07 23:00:00 20.4 0 Calma 5 Sudeste 0 -- -- 62
2019-06-07 22:00:00 20.9 5 Sudeste 12 Sudeste 0 -- -- 61
2019-06-07 21:00:00 21 12 Sudeste 21 Sudeste 0 -- -- 60
2019-06-07 20:00:00 22 11 Sudeste 15 Sudeste 0 -- -- 55
2019-06-07 19:00:00 22.9 10 Sur 21 Sur 0 -- -- 53
2019-06-07 18:00:00 21.5 16 Sudoeste 23 Sudoeste 0 -- -- 55
2019-06-07 17:00:00 22.1 15 Sudoeste 23 Sur 0 -- -- 52
2019-06-07 16:00:00 22.3 14 Sudeste 24 Sudeste 0 -- -- 48
2019-06-07 15:00:00 25.4 10 Sudeste 18 Sudoeste 0 -- -- 42
2019-06-07 14:00:00 22 18 Sudoeste 30 Sudoeste 0 -- -- 50
2019-06-07 13:00:00 22.6 17 Oeste 25 Oeste 0 -- -- 47
2019-06-07 12:00:00 22.5 10 Sudoeste 17 Sudeste 0 -- -- 47
2019-06-07 11:00:00 21.8 11 Sur 16 Sur 0 -- -- 47
2019-06-07 10:00:00 21.8 6 Sur 8 Sur 0 -- -- 46
2019-06-07 09:00:00 20.2 6 Nordeste 13 Norte 0 -- -- 49
2019-06-07 08:00:00 18.2 11 Norte 14 Nordeste 0 -- -- 52
2019-06-07 07:00:00 18.6 6 Nordeste 10 Nordeste 0 -- -- 52
2019-06-07 06:00:00 19.6 10 Nordeste 16 Nordeste 0 -- -- 50
2019-06-07 05:00:00 19.7 10 Nordeste 18 Nordeste 0 -- -- 50
2019-06-07 04:00:00 19.6 0 Calma 24 Sudoeste 0 -- -- 50
2019-06-07 03:00:00 20.1 9 Sudoeste 13 Sudoeste 0 -- -- 50
2019-06-07 02:00:00 19.9 0 Calma 6 Este 0 -- -- 51
2019-06-07 01:00:00 20.2 3 Este 10 Este 0 -- -- 50
2019-06-07 00:00:00 20.2 5 Este 9 Este 0 -- -- 52
2019-06-06 23:00:00 20.4 0 Calma 14 Sudoeste 0 -- -- 52
2019-06-06 22:00:00 20.6 7 Sur 23 Sudeste 0 -- -- 52
2019-06-06 21:00:00 20.8 19 Sudeste 29 Sudeste 0 -- -- 53
2019-06-06 20:00:00 22.3 18 Sudeste 22 Sudeste 0 -- -- 48
2019-06-06 19:00:00 22.8 7 Sur 23 Sur 0 -- -- 45
2019-06-06 18:00:00 22.8 19 Sur 27 Sur 0 -- -- 46
2019-06-06 17:00:00 22.8 15 Sur 23 Sur 0 -- -- 44
2019-06-06 16:00:00 22.2 20 Sur 29 Sur 0 -- -- 45
2019-06-06 15:00:00 22.7 19 Sur 28 Sur 0 -- -- 44
2019-06-06 14:00:00 22.5 21 Sur 27 Sur 0 -- -- 40
2019-06-06 13:00:00 23.7 10 Sur 22 Oeste 0 -- -- 37
2019-06-06 12:00:00 23.6 10 Oeste 24 Noroeste 0 -- -- 42
2019-06-06 11:00:00 22.8 11 Oeste 20 Oeste 0 -- -- 39
2019-06-06 10:00:00 22 4 Sur 11 Sudeste 0 -- -- 48
2019-06-06 09:00:00 21 5 Sudeste 10 Este 0 -- -- 50
2019-06-06 08:00:00 21 5 Nordeste 10 Este 0 -- -- 47
2019-06-06 07:00:00 20.7 5 Sur 8 Sur 0 -- -- 54
2019-06-06 06:00:00 20.8 3 Este 13 Sudeste 0 -- -- 57
2019-06-06 05:00:00 20.9 10 Sudeste 19 Este 0 -- -- 57
2019-06-06 04:00:00 21 8 Sur 17 Sur 0 -- -- 58
2019-06-06 03:00:00 21.1 10 Sur 17 Sudeste 0 -- -- 58
2019-06-06 02:00:00 21.5 9 Este 16 Nordeste 0 -- -- 55
2019-06-06 01:00:00 21.1 6 Norte 10 Nordeste 0 -- -- 61
2019-06-06 00:00:00 20.9 3 Oeste 9 Oeste 0 -- -- 63
2019-06-05 23:00:00 21.1 2 Sur 24 Sudeste 0 -- -- 61
2019-06-05 22:00:00 21.9 20 Sudeste 26 Sudeste 0 -- -- 60
2019-06-05 21:00:00 21.4 2 Sudeste 8 Sudoeste 0 -- -- 60
2019-06-05 20:00:00 22.4 6 Sudoeste 23 Sudoeste 0 -- -- 59
2019-06-05 19:00:00 21.7 16 Sudoeste 21 Sudoeste 0 -- -- 61
2019-06-05 18:00:00 23.4 9 Sur 28 Sudeste 0 -- -- 55
2019-06-05 17:00:00 22.7 27 Sudeste 35 Sudeste 0 -- -- 54
2019-06-05 16:00:00 23.6 7 Sur 23 Sudoeste 0 -- -- 51
2019-06-05 15:00:00 22.5 19 Sudoeste 25 Sudoeste 0 -- -- 57
2019-06-05 14:00:00 24.7 5 Sudoeste 10 Sur 0 -- -- 50
2019-06-05 13:00:00 24 7 Sur 15 Sur 0 -- -- 52
2019-06-05 12:00:00 23.1 12 Sur 17 Sudoeste 0 -- -- 55
2019-06-05 11:00:00 24.7 3 Sur 10 Sudoeste 0 -- -- 54
2019-06-05 10:00:00 23.7 3 Sur 12 Este 0 -- -- 57
2019-06-05 09:00:00 21 9 Sudeste 15 Este 0 -- -- 64
2019-06-05 08:00:00 19.8 7 Norte 10 Norte 0 -- -- 65
2019-06-05 07:00:00 19.9 8 Norte 11 Norte 0 -- -- 65
2019-06-05 06:00:00 20.1 6 Norte 13 Este 0 -- -- 64
2019-06-05 05:00:00 20.6 5 Nordeste 9 Este 0 -- -- 65
2019-06-05 04:00:00 20.5 4 Nordeste 13 Sudoeste 0 -- -- 68
2019-06-05 03:00:00 20.5 7 Oeste 12 Oeste 0 -- -- 70
2019-06-05 02:00:00 20.6 3 Oeste 9 Sur 0 -- -- 71
2019-06-05 01:00:00 20.9 5 Sur 12 Sudeste 0 -- -- 71
2019-06-05 00:00:00 20.9 10 Sudeste 13 Sudeste 0 -- -- 71
2019-06-04 23:00:00 21.2 7 Sur 10 Sur 0 -- -- 67
2019-06-04 22:00:00 21.6 0 Calma 7 Oeste 0 -- -- 62
2019-06-04 21:00:00 22.3 8 Sudeste 23 Sudeste 0 -- -- 60
2019-06-04 20:00:00 23.6 21 Sudeste 26 Sudeste 0 -- -- 57
2019-06-04 19:00:00 26.4 14 Sudeste 18 Sudeste 0 -- -- 42
2019-06-04 18:00:00 26.6 5 Sudeste 12 Oeste 0 -- -- 47
2019-06-04 17:00:00 26.5 6 Oeste 10 Oeste 0 -- -- 46
2019-06-04 16:00:00 27.4 4 Sudeste 10 Sudeste 0 -- -- 48
2019-06-04 15:00:00 26.5 4 Sur 9 Oeste 0 -- -- 49
2019-06-04 14:00:00 27.1 4 Sur 8 Sudeste 0 -- -- 45
2019-06-04 13:00:00 27.5 4 Sudeste 9 Sudeste 0 -- -- 47
2019-06-04 12:00:00 25.9 8 Sudeste 13 Sudeste 0 -- -- 52
2019-06-04 11:00:00 24.6 9 Sudeste 17 Sudeste 0 -- -- 55
2019-06-04 10:00:00 23.9 16 Sudeste -- -- -- -- -- 52
2019-06-04 09:00:00 24.3 2 Oeste 8 Norte 0 -- -- 51
2019-06-04 08:00:00 21.1 6 Norte 10 Norte 0 -- -- 45
2019-06-04 07:00:00 20.5 5 Norte 9 Norte 0 -- -- 54
2019-06-04 06:00:00 20.6 7 Nordeste 26 Sudeste 0 -- -- 65
2019-06-04 05:00:00 21.2 18 Sudeste 22 Sudeste 0 -- -- 73
2019-06-04 04:00:00 21.4 3 Sudeste 10 Sudeste 0 -- -- 71
2019-06-04 03:00:00 22.1 6 Sudeste 10 Nordeste 0 -- -- 66
2019-06-04 02:00:00 22 4 Sudoeste 10 Sudeste 0 -- -- 67
2019-06-04 01:00:00 22.5 3 Este 7 Nordeste 0 -- -- 62
2019-06-04 00:00:00 22.8 3 Norte 7 Norte 0 -- -- 61
2019-06-03 23:00:00 22.3 0 Calma 4 Oeste 0 -- -- 61
2019-06-03 22:00:00 22.6 4 Oeste 14 Oeste 0 -- -- 59
2019-06-03 21:00:00 23.5 2 Este 9 Este 0 -- -- 50
2019-06-03 20:00:00 24.8 6 Este 9 Sudeste 0 -- -- 51
2019-06-03 19:00:00 24.8 6 Sudeste 15 Sudeste 0 -- -- 47
2019-06-03 18:00:00 26 12 Sudeste 19 Sudeste 0 -- -- 42
2019-06-03 17:00:00 27.4 15 Sudeste 19 Este 0 -- -- 40
2019-06-03 16:00:00 29.2 9 Sudeste 12 Este 0 -- -- 34
2019-06-03 15:00:00 28.6 5 Oeste 12 Oeste 0 -- -- 34
2019-06-03 14:00:00 29.4 3 Sur 12 Este 0 -- -- 31
2019-06-03 13:00:00 28.6 5 Este 12 Sudeste 0 -- -- 30
2019-06-03 12:00:00 27.7 11 Sudeste 15 Sudeste 0 -- -- 39
2019-06-03 11:00:00 27.2 5 Sudeste 10 Oeste 0 -- -- 47
2019-06-03 10:00:00 23.5 9 Oeste 12 Oeste 0 -- -- 59
2019-06-03 09:00:00 22.7 3 Sudeste 12 Este 0 -- -- 62
2019-06-03 08:00:00 21.7 9 Sudeste 17 Este 0 -- -- 60
2019-06-03 07:00:00 21.3 2 Oeste 17 Norte 0 -- -- 63
2019-06-03 06:00:00 21 5 Norte 14 Norte 0 -- -- 65
2019-06-03 05:00:00 21.2 4 Noroeste 14 Norte 0 -- -- 66
2019-06-03 04:00:00 21.4 6 Nordeste 14 Sudeste 0 -- -- 65
2019-06-03 03:00:00 21 12 Sudeste 15 Sudeste 0 -- -- 70
2019-06-03 02:00:00 21 3 Este 12 Oeste 0 -- -- 72
2019-06-03 01:00:00 21.1 10 Oeste 16 Noroeste 0 -- -- 72
2019-06-03 00:00:00 20.7 6 Oeste 10 Sudeste 0 -- -- 71
2019-06-02 23:00:00 20.8 10 Sudeste 14 Sudeste 0 -- -- 71
2019-06-02 22:00:00 20.9 3 Sudeste 7 Oeste 0 -- -- 70
2019-06-02 21:00:00 21 2 Sudeste 15 Sudeste 0 -- -- 68
2019-06-02 20:00:00 21.7 14 Sudeste 30 Sudeste 0 -- -- 67
2019-06-02 19:00:00 22.2 22 Sudeste 26 Sudeste 0 -- -- 64
2019-06-02 18:00:00 23.3 23 Sudeste 30 Sudeste 0 -- -- 62
2019-06-02 17:00:00 23.4 24 Sudeste 28 Sudeste 0 -- -- 60
2019-06-02 16:00:00 24.3 13 Sudeste 17 Sudeste 0 -- -- 57
2019-06-02 15:00:00 24.2 5 Sur 16 Sudoeste 0 -- -- 57
2019-06-02 14:00:00 23.3 13 Oeste 20 Oeste 0 -- -- 60
2019-06-02 13:00:00 23.1 12 Oeste 15 Oeste 0 -- -- 61
2019-06-02 12:00:00 22.4 8 Sudoeste 15 Sur 0 -- -- 63
2019-06-02 11:00:00 22.6 9 Sur 13 Sur 0 -- -- 64
2019-06-02 10:00:00 23.3 3 Sudoeste 24 Sudeste 0 -- -- 63
2019-06-02 09:00:00 22.1 4 Sudeste 8 Sur 0 -- -- 60
2019-06-02 08:00:00 20.2 0 Calma 17 Nordeste 0 -- -- 63
2019-06-02 07:00:00 19.6 6 Nordeste 12 Nordeste 0 -- -- 57
2019-06-02 06:00:00 19.4 0 Calma 10 Norte 0 -- -- 66
2019-06-02 05:00:00 19.4 2 Norte 14 Nordeste 0 -- -- 68
2019-06-02 04:00:00 19.1 6 Norte 10 Norte 0 -- -- 68
2019-06-02 03:00:00 19.7 0 Calma 12 Oeste 0 -- -- 68
2019-06-02 02:00:00 19.9 9 Oeste 15 Oeste 0 -- -- 68
2019-06-02 01:00:00 20.1 7 Oeste 11 Oeste 0 -- -- 68
2019-06-02 00:00:00 20.1 7 Sudeste 23 Este 0 -- -- 67
2019-06-01 23:00:00 20.4 18 Sudeste 31 Este 0 -- -- 65
2019-06-01 22:00:00 20.8 22 Sudeste 26 Sudeste 0 -- -- 65
2019-06-01 21:00:00 20.8 24 Sudeste 32 Sudeste 0 -- -- 66
2019-06-01 20:00:00 21.5 28 Sudeste 32 Sudeste 0 -- -- 63
2019-06-01 19:00:00 22.8 21 Sudeste 26 Este 0 -- -- 60
2019-06-01 18:00:00 23.9 4 Sudoeste 23 Oeste 0 -- -- 58
2019-06-01 17:00:00 21.6 19 Oeste 27 Oeste 0 -- -- 61
2019-06-01 16:00:00 21.6 18 Oeste 29 Oeste 0 -- -- 62
2019-06-01 15:00:00 21.1 22 Oeste 32 Oeste 0 -- -- 62
2019-06-01 14:00:00 21 22 Oeste 29 Oeste 0 -- -- 62
2019-06-01 13:00:00 21.2 21 Oeste 28 Oeste 0 -- -- 61
2019-06-01 12:00:00 21.9 16 Oeste 28 Oeste 0 -- -- 59
2019-06-01 11:00:00 21.6 17 Oeste 24 Oeste 0 -- -- 61
2019-06-01 10:00:00 20.7 7 Sudoeste 30 Este 0 -- -- 64
2019-06-01 09:00:00 20.5 25 Sudeste 36 Este 0 -- -- 65
2019-06-01 08:00:00 19.9 25 Este 36 Este 0 -- -- 66
2019-06-01 07:00:00 19.8 4 Este 15 Oeste 0 -- -- 66
2019-06-01 06:00:00 19.8 9 Oeste 14 Sudeste 0 -- -- 66
2019-06-01 05:00:00 20 11 Sudeste 14 Sudeste 0 -- -- 65
2019-06-01 04:00:00 20.3 3 Sur 15 Sudoeste 0 -- -- 64
2019-06-01 03:00:00 20.3 0 Calma 13 Oeste 0 -- -- 65
2019-06-01 02:00:00 20.5 6 Oeste 17 Oeste 0 -- -- 65
2019-06-01 01:00:00 20.5 8 Oeste 12 Oeste 0 -- -- 66
2019-06-01 00:00:00 20.4 7 Sudoeste 15 Sudoeste 0 -- -- 66
2019-05-31 23:00:00 20.4 9 Sudoeste 12 Sudoeste 0 -- -- 65
2019-05-31 22:00:00 20.5 6 Sudoeste 11 Sudeste 0 -- -- 65
2019-05-31 21:00:00 20.5 8 Sudeste 11 Sudeste 0 -- -- 65
2019-05-31 20:00:00 22 6 Sur 10 Sur 0 -- -- 59
2019-05-31 19:00:00 22.3 8 Sur 16 Sur 0 -- -- 60
2019-05-31 18:00:00 21.4 12 Sudeste 17 Sudeste 0 -- -- 60
2019-05-31 17:00:00 23.7 9 Sur 14 Sur 0 -- -- 54
2019-05-31 16:00:00 22.3 9 Sur 19 Sudeste 0 -- -- 57
2019-05-31 15:00:00 21.6 17 Sudeste 32 Sudeste 0 -- -- 60
2019-05-31 14:00:00 22 26 Sudeste 32 Sudeste 0 -- -- 60
2019-05-31 13:00:00 22.3 18 Sudeste 21 Sudeste 0 -- -- 57
2019-05-31 12:00:00 23.9 5 Sudeste 10 Oeste 0 -- -- 51
2019-05-31 11:00:00 21.3 7 Oeste 12 Oeste 0 -- -- 61
2019-05-31 10:00:00 21.4 9 Oeste 18 Oeste 0 -- -- 59
2019-05-31 09:00:00 20.4 9 Oeste 12 Noroeste 0 -- -- 64
2019-05-31 08:00:00 18.5 5 Norte 12 Norte 0 -- -- 65
2019-05-31 07:00:00 18.5 5 Norte 13 Norte 0 -- -- 66
2019-05-31 06:00:00 18.6 8 Norte 19 Sudeste 0 -- -- 66
2019-05-31 05:00:00 19.5 8 Sudeste 13 Este 0 -- -- 65
2019-05-31 04:00:00 19.7 6 Sudeste 13 Sudeste 0 -- -- 65
2019-05-31 03:00:00 20 6 Oeste 20 Oeste 0 -- -- 65
2019-05-31 02:00:00 20.1 11 Oeste 18 Oeste 0 -- -- 65
2019-05-31 01:00:00 19.8 8 Este 27 Sudeste 0 -- -- 64
2019-05-31 00:00:00 20.4 5 Sudeste 12 Este 0 -- -- 63
2019-05-30 23:00:00 20.6 5 Sudeste 18 Sudeste 0 -- -- 63
2019-05-30 22:00:00 20.3 15 Sudeste 21 Sudeste 0 -- -- 64
2019-05-30 21:00:00 20.4 17 Sudeste 20 Sudeste 0 -- -- 62
2019-05-30 20:00:00 21.1 12 Sudeste 18 Sudeste 0 -- -- 58
2019-05-30 19:00:00 21.5 13 Sudeste 16 Sudeste 0 -- -- 56
2019-05-30 18:00:00 22.7 8 Sur 13 Sudoeste 0 -- -- 52
2019-05-30 17:00:00 22.4 8 Sudoeste 14 Sudoeste 0 -- -- 53
2019-05-30 16:00:00 22.5 9 Sudoeste 13 Sudoeste 0 -- -- 53
2019-05-30 15:00:00 22.8 9 Sur 23 Sudeste 0 -- -- 53
2019-05-30 14:00:00 21 19 Sudeste 28 Sudeste 0 -- -- 58
2019-05-30 13:00:00 21.4 20 Sudeste 27 Sudeste 0 -- -- 57
2019-05-30 12:00:00 20.5 15 Sudeste 21 Sudeste 0 -- -- 59
2019-05-30 11:00:00 20.7 10 Sudeste 14 Sudeste 0 -- -- 57
2019-05-30 10:00:00 22.2 5 Sudeste 8 Este 0 -- -- 54
2019-05-30 09:00:00 21.6 2 Sudoeste 10 Oeste 0 -- -- 57
2019-05-30 08:00:00 19.6 6 Oeste 18 Oeste 0 -- -- 61
2019-05-30 07:00:00 19.6 6 Oeste 15 Oeste 0 -- -- 61
2019-05-30 06:00:00 19.3 9 Oeste 19 Sudoeste 0 -- -- 63
2019-05-30 05:00:00 19.6 6 Sudoeste 17 Sudoeste 0 -- -- 65
2019-05-30 04:00:00 19.6 3 Sudeste 15 Sudeste 0 -- -- 65
2019-05-30 03:00:00 19.5 4 Este 22 Este 0 -- -- 64
2019-05-30 02:00:00 19.5 10 Este 17 Sudeste 0 -- -- 65
2019-05-30 01:00:00 19.6 11 Sudeste 23 Este 0 -- -- 64
2019-05-30 00:00:00 19.7 16 Sudeste 19 Sudeste 0 -- -- 64
2019-05-29 23:00:00 19.7 8 Sudeste 14 Sudeste 0 -- -- 61
2019-05-29 22:00:00 19.9 3 Sur 13 Sudoeste 0 -- -- 60
2019-05-29 21:00:00 20.2 9 Sudoeste 14 Oeste 0 -- -- 59
2019-05-29 20:00:00 21.7 8 Oeste 12 Sudoeste 0 -- -- 54
2019-05-29 19:00:00 22.3 7 Sur 22 Sudeste 0 -- -- 52
2019-05-29 18:00:00 21.8 21 Sudeste 30 Sudeste 0 -- -- 54
2019-05-29 17:00:00 21 24 Sudeste 30 Sudeste 0 -- -- 56
2019-05-29 16:00:00 21.1 18 Sudeste 23 Sudeste 0 -- -- 53
2019-05-29 15:00:00 21.8 15 Sudeste 18 Sudeste 0 -- -- 51
2019-05-29 14:00:00 22.6 8 Sudeste 11 Sudeste 0 -- -- 49
2019-05-29 13:00:00 22.7 8 Sudoeste 17 Sudoeste 0 -- -- 50
2019-05-29 12:00:00 22.3 10 Oeste 19 Sudoeste 0 -- -- 53
2019-05-29 11:00:00 22.1 12 Oeste -- -- -- -- -- 54
2019-05-29 10:00:00 20.3 8 Oeste 14 Oeste 0 -- -- 57
2019-05-29 09:00:00 21.8 3 Sudeste 15 Este 0 -- -- 60
2019-05-29 08:00:00 18.4 12 Sudeste 24 Este 0 -- -- 62
2019-05-29 07:00:00 20.4 10 Este 23 Este 0 -- -- 64
2019-05-29 06:00:00 19.3 7 Este 18 Sudeste 0 -- -- 64
2019-05-29 05:00:00 19.4 11 Este 24 Este 0 -- -- 64
2019-05-29 04:00:00 19.9 10 Este 16 Sudeste 0 -- -- 64
2019-05-29 03:00:00 20.5 10 Sudoeste 22 Sudoeste 0 -- -- 65
2019-05-29 02:00:00 20.3 9 Oeste 14 Oeste 0 -- -- 65
2019-05-29 01:00:00 20.3 9 Sur 17 Sudeste 0 -- -- 63
2019-05-29 00:00:00 21.1 12 Sudeste 17 Sudeste 0 -- -- 59
2019-05-28 23:00:00 21.3 10 Sudeste 29 Sudeste 0 -- -- 57
2019-05-28 22:00:00 21.2 12 Este 22 Este 0 -- -- 58
2019-05-28 21:00:00 19.4 15 Sudeste 18 Sudeste 0 -- -- 60
2019-05-28 20:00:00 22 8 Sur 15 Sudeste 0 -- -- 57
2019-05-28 19:00:00 22.3 12 Sudoeste 18 Sudoeste 0 -- -- 55
2019-05-28 18:00:00 22.6 10 Oeste 18 Sur 0 -- -- 53
2019-05-28 17:00:00 22.1 15 Sur 23 Sudeste 0 -- -- 60
2019-05-28 16:00:00 22.9 19 Sudeste 26 Sudeste 0 -- -- 58
2019-05-28 15:00:00 22.2 15 Sudeste 19 Sudeste 0 -- -- 57
2019-05-28 14:00:00 22.3 9 Sur 13 Sudeste 0 -- -- 54
2019-05-28 13:00:00 26.3 8 Sur 14 Sudoeste 0 -- -- 54
2019-05-28 12:00:00 20.8 11 Sur 15 Sur 0 -- -- 57
2019-05-28 11:00:00 24 4 Sudoeste 9 Sudoeste 0 -- -- 57
2019-05-28 10:00:00 20.9 4 Sudoeste 9 Sur 0 -- -- 60
2019-05-28 09:00:00 21.4 6 Sudeste 13 Este 0 -- -- 65
2019-05-28 08:00:00 17.2 8 Sudeste 15 Sudeste 0 -- -- 69
2019-05-28 07:00:00 21.3 6 Sudeste 16 Este 0 -- -- 68
2019-05-28 06:00:00 20.2 5 Este 13 Sudeste 0 -- -- 69
2019-05-28 05:00:00 21.1 6 Sudoeste 9 Sur 0 -- -- 69
2019-05-28 04:00:00 19.7 3 Sur 11 Sur 0 -- -- 70
2019-05-28 03:00:00 20.8 6 Sur 18 Este 0 -- -- 70
2019-05-28 02:00:00 -- 15 Sudeste 21 Sudeste 0 -- -- 71
2019-05-28 01:00:00 20.2 13 Sudeste 17 Sudeste 0 -- -- 71
2019-05-28 00:00:00 21 13 Sudeste 19 Sudeste 0 -- -- 71
2019-05-27 23:00:00 22.1 13 Sudeste 21 Sudeste 0 -- -- 68
2019-05-27 22:00:00 22.5 14 Sudeste 16 Sudeste 0 -- -- 61
2019-05-27 21:00:00 21.3 11 Sudeste 19 Sudeste 0 -- -- 55
2019-05-27 20:00:00 23.4 18 Sudeste 23 Sudeste 0 -- -- 49
2019-05-27 19:00:00 24.2 20 Sudeste 24 Sudeste 0 -- -- 43
2019-05-27 18:00:00 24.8 17 Sudeste 20 Sudeste 0 -- -- 45
2019-05-27 17:00:00 25.9 10 Oeste 26 Oeste 0 -- -- 46
2019-05-27 16:00:00 26 5 Sur 12 Sudeste 0 -- -- 49
2019-05-27 15:00:00 23.8 8 Sudeste 12 Sudeste 0 -- -- 52
2019-05-27 14:00:00 24.3 8 Sudeste 10 Sudeste 0 -- -- 56
2019-05-27 13:00:00 24.9 3 Sur 16 Oeste 0 -- -- 51
2019-05-27 12:00:00 24.6 9 Oeste 14 Oeste 0 -- -- 52
2019-05-27 11:00:00 24 2 Sur 7 Sudeste 0 -- -- 53
2019-05-27 10:00:00 24 3 Sudeste 6 Sudeste 0 -- -- 57
2019-05-27 09:00:00 21.5 2 Norte 7 Norte 0 -- -- 56
2019-05-27 08:00:00 19.6 3 Norte 11 Norte 0 -- -- 60
2019-05-27 07:00:00 19.3 4 Norte 15 Norte 0 -- -- 64
2019-05-27 06:00:00 20.5 7 Norte 12 Norte 0 -- -- 70
2019-05-27 05:00:00 20.1 4 Oeste 13 Norte 0 -- -- 72
2019-05-27 04:00:00 21.4 10 Norte 13 Norte 0 -- -- 71
2019-05-27 03:00:00 18.7 3 Sudeste 6 Sudeste 0 -- -- 71
2019-05-27 02:00:00 18.2 0 Calma 6 Sudeste 0 -- -- 69
2019-05-27 01:00:00 20.3 4 Sur 9 Sur 0 -- -- 69
2019-05-27 00:00:00 20.3 3 Sudoeste 7 Sudoeste 0 -- -- 68
2019-05-26 23:00:00 20.6 0 Calma 8 Sudeste 0 -- -- 66
2019-05-26 22:00:00 20.7 6 Sur 12 Sur 0 -- -- 65
2019-05-26 21:00:00 20.1 8 Sudeste 14 Sur 0 -- -- 63
2019-05-26 20:00:00 21.3 14 Sudeste 21 Sudeste 0 -- -- 63
2019-05-26 19:00:00 21.2 17 Sudeste 22 Sudeste 0 -- -- 63
2019-05-26 18:00:00 23.4 13 Sudeste 15 Sudeste 0 -- -- 53
2019-05-26 17:00:00 23.3 11 Sudeste 18 Sudeste 0 -- -- 51
2019-05-26 16:00:00 24.4 16 Sudeste 21 Este 0 -- -- 45
2019-05-26 15:00:00 24.6 14 Sudeste 17 Sudeste 0 -- -- 43
2019-05-26 14:00:00 24.1 6 Sudeste 10 Sudeste 0 -- -- 43
2019-05-26 13:00:00 24.7 4 Sudoeste 18 Oeste 0 -- -- 46
2019-05-26 12:00:00 22.5 10 Oeste 19 Oeste 0 -- -- 49
2019-05-26 11:00:00 22.5 11 Sudeste 16 Sudeste 0 -- -- 50
2019-05-26 10:00:00 21.5 6 Sudeste 9 Sudeste 0 -- -- 47
2019-05-26 09:00:00 21.3 4 Nordeste 13 Norte 0 -- -- 47
2019-05-26 08:00:00 18.6 6 Norte 14 Norte 0 -- -- 52
2019-05-26 07:00:00 19 11 Norte 14 Norte 0 -- -- 52
2019-05-26 06:00:00 20.2 8 Nordeste 17 Nordeste 0 -- -- 53
2019-05-26 05:00:00 18.5 9 Este 21 Este 0 -- -- 58
2019-05-26 04:00:00 19.7 9 Este 15 Oeste 0 -- -- 61
2019-05-26 03:00:00 20.5 7 Oeste 12 Oeste 0 -- -- 62
2019-05-26 02:00:00 19.2 7 Este 28 Este 0 -- -- 62
2019-05-26 01:00:00 18.8 13 Este 25 Este 0 -- -- 63
2019-05-26 00:00:00 20 10 Este 19 Este 0 -- -- 64
2019-05-25 23:00:00 21.3 11 Sudeste 15 Sudeste 0 -- -- 62
2019-05-25 22:00:00 21 14 Sudeste 21 Sudeste 0 -- -- 60
2019-05-25 21:00:00 22.3 5 Sudeste 24 Sudeste 0 -- -- 50
2019-05-25 20:00:00 22.3 15 Sudeste 19 Este 0 -- -- 54
2019-05-25 19:00:00 22.5 7 Sur 17 Sudoeste 0 -- -- 52
2019-05-25 18:00:00 22.7 11 Sudoeste 14 Sudoeste 0 -- -- 54
2019-05-25 17:00:00 23.5 14 Sudeste 22 Sudeste 0 -- -- 51
2019-05-25 16:00:00 21.7 19 Sudeste 25 Sudeste 0 -- -- 53
2019-05-25 15:00:00 21 11 Sudeste 17 Sudoeste 0 -- -- 55
2019-05-25 14:00:00 21.1 8 Sudoeste 16 Sudoeste 0 -- -- 52
2019-05-25 13:00:00 25.4 5 Sudeste 12 Sudeste 0 -- -- 51
2019-05-25 12:00:00 23.5 5 Sur 14 Sudeste 0 -- -- 52
2019-05-25 11:00:00 21.6 13 Sudeste 17 Sudeste 0 -- -- 57
2019-05-25 10:00:00 23.3 4 Sur 7 Sudoeste 0 -- -- 56
2019-05-25 09:00:00 23.6 2 Sur 18 Este 0 -- -- 61
2019-05-25 08:00:00 21 8 Este 21 Este 0 -- -- 65
2019-05-25 07:00:00 18 10 Este 16 Este 0 -- -- 67
2019-05-25 06:00:00 18.6 4 Norte 7 Nordeste 0 -- -- 67
2019-05-25 05:00:00 19.7 2 Nordeste 9 Este 0 -- -- 67
2019-05-25 04:00:00 20.8 6 Sudeste 10 Sudeste 0 -- -- 67
2019-05-25 03:00:00 21 2 Sur 10 Sudeste 0 -- -- 67
2019-05-25 02:00:00 22.1 8 Sudeste 25 Sudeste 0 -- -- 67
2019-05-25 01:00:00 21.6 23 Sudeste 26 Sudeste 0 -- -- 65
2019-05-25 00:00:00 22.5 5 Este 7 Este 0 -- -- 48
2019-05-24 23:00:00 21.1 4 Sudeste 7 Este 0 -- -- 66
2019-05-24 22:00:00 21.6 4 Sudeste 5 Sudeste 0 -- -- 65
2019-05-24 21:00:00 21.5 3 Sudeste 9 Sudeste 0 -- -- 59
2019-05-24 20:00:00 23.6 4 Sudeste 9 Sudeste 0 -- -- 53
2019-05-24 19:00:00 23.8 5 Sudeste 10 Sur 0 -- -- 49
2019-05-24 18:00:00 23.5 6 Sudeste 11 Sudeste 0 -- -- 49
2019-05-24 17:00:00 25.3 7 Sudeste 12 Sudeste 0 -- -- 37
2019-05-24 16:00:00 26.9 8 Sudeste 13 Sudeste 0 -- -- 32
2019-05-24 15:00:00 26.8 5 Sudeste 10 Sudeste 0 -- -- 34
2019-05-24 14:00:00 24.7 4 Sur 14 Oeste 0 -- -- 45
2019-05-24 13:00:00 24.5 8 Oeste 12 Oeste 0 -- -- 48
2019-05-24 12:00:00 26.1 4 Sur 9 Oeste 0 -- -- 50
2019-05-24 11:00:00 23.1 5 Sudoeste 15 Sudeste 0 -- -- 56
2019-05-24 10:00:00 21.8 12 Sudeste 14 Sudeste 0 -- -- 55
2019-05-24 09:00:00 21.2 6 Sudeste 13 Sudeste 0 -- -- 49
2019-05-24 08:00:00 17.3 6 Norte 9 Nordeste 0 -- -- 43
2019-05-24 07:00:00 18.6 6 Norte 9 Norte 0 -- -- 43
2019-05-24 06:00:00 18.7 7 Nordeste 10 Norte 0 -- -- 45
2019-05-24 05:00:00 19 3 Nordeste 12 Norte 0 -- -- 45
2019-05-24 04:00:00 19.4 3 Norte 10 Este 0 -- -- 48
2019-05-24 03:00:00 20.3 4 Norte 9 Norte 0 -- -- 49
2019-05-24 02:00:00 21.1 4 Norte 8 Norte 0 -- -- 56
2019-05-24 01:00:00 21.3 3 Norte 7 Oeste 0 -- -- 58
2019-05-24 00:00:00 20.8 3 Sudeste 10 Este 0 -- -- 61
2019-05-23 23:00:00 21.8 6 Este 11 Este 0 -- -- 59
2019-05-23 22:00:00 20.6 5 Sudoeste 12 Sudoeste 0 -- -- 61
2019-05-23 21:00:00 20.6 10 Sudeste 28 Sudeste 0 -- -- 61
2019-05-23 20:00:00 21.8 6 Sudoeste 13 Oeste 0 -- -- 50
2019-05-23 19:00:00 23.8 6 Oeste 10 Oeste 0 -- -- 47
2019-05-23 18:00:00 22.7 11 Sudoeste 22 Sudoeste 0 -- -- 52
2019-05-23 17:00:00 23.3 16 Oeste 26 Sudeste 0 -- -- 50
2019-05-23 16:00:00 23.1 17 Sudeste 28 Sudeste 0 -- -- 55
2019-05-23 15:00:00 22.4 13 Sudeste 19 Sudeste 0 -- -- 52
2019-05-23 14:00:00 22.5 15 Sudoeste 26 Sudoeste 0 -- -- 50
2019-05-23 13:00:00 23.5 13 Oeste 15 Oeste 0 -- -- 46
2019-05-23 12:00:00 23.3 10 Sur 16 Sudeste 0 -- -- 49
2019-05-23 11:00:00 23.2 14 Sudeste 17 Sudeste 0 -- -- 49
2019-05-23 10:00:00 23.7 4 Sudoeste 9 Nordeste 0 -- -- 50
2019-05-23 09:00:00 20.3 6 Norte 13 Nordeste 0 -- -- 53
2019-05-23 08:00:00 19.2 9 Nordeste 17 Norte 0 -- -- 59
2019-05-23 07:00:00 18.7 11 Norte 16 Norte 0 -- -- 61
2019-05-23 06:00:00 18.5 12 Norte 18 Este 0 -- -- 60
2019-05-23 05:00:00 19.8 13 Este 22 Este 0 -- -- 57
2019-05-23 04:00:00 20.5 6 Nordeste 10 Norte 0 -- -- 62
2019-05-23 03:00:00 20 3 Sudoeste 10 Sudeste 0 -- -- 61
2019-05-23 02:00:00 21.8 8 Este 17 Este 0 -- -- 61
2019-05-23 01:00:00 20.2 9 Este 15 Este 0 -- -- 61
2019-05-23 00:00:00 19.6 10 Sur 18 Sur 0 -- -- 63
2019-05-22 23:00:00 20.8 17 Sudeste 21 Sudeste 0 -- -- 59
2019-05-22 22:00:00 21.7 8 Sudeste 21 Este 0 -- -- 54
2019-05-22 21:00:00 20.5 15 Sudeste 21 Sudeste 0 -- -- 56
2019-05-22 20:00:00 22.1 7 Sur 13 Sur 0 -- -- 53
2019-05-22 19:00:00 23 8 Sur 18 Sudeste 0 -- -- 50
2019-05-22 18:00:00 22.9 13 Sudeste 18 Sudeste 0 -- -- 51
2019-05-22 17:00:00 22.9 13 Sudeste 16 Sudeste 0 -- -- 50
2019-05-22 16:00:00 24.6 4 Sur 18 Sudoeste 0 -- -- 44
2019-05-22 15:00:00 23.2 13 Sudoeste 18 Sudoeste 0 -- -- 51
2019-05-22 14:00:00 21.5 15 Sur 19 Sur 0 -- -- 51
2019-05-22 13:00:00 21.9 12 Sudeste 19 Sudeste 0 -- -- 53
2019-05-22 12:00:00 24 15 Sudeste 19 Sudeste 0 -- -- 47
2019-05-22 11:00:00 23.5 6 Sudeste 10 Este 0 -- -- 47
2019-05-22 10:00:00 23.3 6 Sur 9 Sur 0 -- -- 50
2019-05-22 09:00:00 20.3 5 Norte 14 Norte 0 -- -- 52
2019-05-22 08:00:00 17.8 11 Norte 15 Norte 0 -- -- 57
2019-05-22 07:00:00 19.1 11 Norte 14 Norte 0 -- -- 58
2019-05-22 06:00:00 18.1 10 Norte 13 Norte 0 -- -- 59
2019-05-22 05:00:00 17.2 9 Norte 15 Este 0 -- -- 59
2019-05-22 04:00:00 18.3 9 Este 19 Este 0 -- -- 57
2019-05-22 03:00:00 19.3 10 Este 15 Este 0 -- -- 57
2019-05-22 02:00:00 19.6 7 Sur 15 Sudoeste 0 -- -- 58
2019-05-22 01:00:00 20.3 9 Sudoeste 14 Sudeste 0 -- -- 57
2019-05-22 00:00:00 20.4 11 Sudeste 21 Sudeste 0 -- -- 56
2019-05-21 23:00:00 21.1 9 Este 24 Este 0 -- -- 54
2019-05-21 22:00:00 19.3 3 Sudeste 16 Sudoeste 0 -- -- 55
2019-05-21 21:00:00 20 13 Sudoeste 19 Sudoeste 0 -- -- 56
2019-05-21 20:00:00 21.3 13 Sudoeste 17 Sudoeste 0 -- -- 51
2019-05-21 19:00:00 21.4 12 Sudeste 32 Sudeste 0 -- -- 50
2019-05-21 18:00:00 22.5 27 Sudeste 30 Sudeste 0 -- -- 46
2019-05-21 17:00:00 23.5 19 Sudeste 23 Sudeste 0 -- -- 43
2019-05-21 16:00:00 22.2 14 Sudeste 18 Sudeste 0 -- -- 43
2019-05-21 15:00:00 23.4 8 Sudoeste 28 Oeste 0 -- -- 43
2019-05-21 14:00:00 22.9 17 Oeste 23 Oeste 0 -- -- 48
2019-05-21 13:00:00 23.3 9 Sur 24 Sudeste 0 -- -- 46
2019-05-21 12:00:00 21 22 Sudeste 32 Sudeste 0 -- -- 54
2019-05-21 11:00:00 22.7 26 Sudeste 29 Sudeste 0 -- -- 46
2019-05-21 10:00:00 22.4 15 Sudeste 21 Este 0 -- -- 43
2019-05-21 09:00:00 21.3 4 Norte 18 Norte 0 -- -- 48
2019-05-21 08:00:00 19.5 12 Norte 17 Norte 0 -- -- 52
2019-05-21 07:00:00 19.1 7 Nordeste 22 Este 0 -- -- 52
2019-05-21 06:00:00 19.4 11 Nordeste 18 Nordeste 0 -- -- 52
2019-05-21 05:00:00 18.7 10 Norte 14 Norte 0 -- -- 49
2019-05-21 04:00:00 19.2 5 Norte 12 Norte 0 -- -- 49
2019-05-21 03:00:00 19.6 6 Norte 15 Este 0 -- -- 52
2019-05-21 02:00:00 20.8 6 Nordeste 26 Nordeste 0 -- -- 49
2019-05-21 01:00:00 20.6 14 Nordeste 19 Nordeste 0 -- -- 52
2019-05-21 00:00:00 20.5 3 Sudeste 22 Sudoeste 0 -- -- 55
2019-05-20 23:00:00 21.3 14 Oeste 20 Oeste 0 -- -- 55
2019-05-20 22:00:00 20.3 17 Sudeste 27 Sudeste 0 -- -- 54
2019-05-20 21:00:00 21.2 18 Sudeste 25 Sudeste 0 -- -- 52
2019-05-20 20:00:00 21.9 12 Sudeste 20 Sur 0 -- -- 49
2019-05-20 19:00:00 22.1 17 Sur 32 Sudoeste 0 -- -- 51
2019-05-20 18:00:00 21.9 21 Sudoeste 28 Sudoeste 0 -- -- 55
2019-05-20 17:00:00 23 17 Sudoeste 26 Oeste 0 -- -- 50
2019-05-20 16:00:00 22.8 17 Sudeste 32 Sudeste 0 -- -- 50
2019-05-20 15:00:00 23.4 21 Sudeste 27 Sudeste 0 -- -- 46
2019-05-20 14:00:00 23.7 6 Sudoeste 26 Sudoeste 0 -- -- 40
2019-05-20 13:00:00 22 16 Sudoeste 23 Sudoeste 0 -- -- 51
2019-05-20 12:00:00 21.7 12 Sudoeste 20 Sudeste 0 -- -- 47
2019-05-20 11:00:00 22.2 19 Sudeste 24 Sudeste 0 -- -- 48
2019-05-20 10:00:00 22.5 14 Sudeste 21 Este 0 -- -- 48
2019-05-20 09:00:00 20.7 2 Este 12 Norte 0 -- -- 56
2019-05-20 08:00:00 18.1 12 Norte 14 Norte 0 -- -- 58
2019-05-20 07:00:00 18.3 8 Norte 13 Nordeste 0 -- -- 57
2019-05-20 06:00:00 19.3 8 Nordeste 19 Este 0 -- -- 56
2019-05-20 05:00:00 20.2 8 Nordeste 20 Este 0 -- -- 57
2019-05-20 04:00:00 19.9 5 Sur 14 Oeste 0 -- -- 57
2019-05-20 03:00:00 19.9 3 Oeste 18 Sudeste 0 -- -- 55
2019-05-20 02:00:00 21.2 9 Nordeste 29 Sudeste 0 -- -- 54
2019-05-20 01:00:00 18.8 8 Sudeste 20 Este 0 -- -- 56
2019-05-20 00:00:00 20.1 4 Sur 16 Sudoeste 0 -- -- 56
2019-05-19 23:00:00 21 9 Sur 27 Sudeste 0 -- -- 56
2019-05-19 22:00:00 21.2 13 Sudeste 26 Sudeste 0 -- -- 53
2019-05-19 21:00:00 20.6 11 Sudeste 14 Este 0 -- -- 55
2019-05-19 20:00:00 21.2 8 Sur 16 Sudeste 0 -- -- 54
2019-05-19 19:00:00 22.1 15 Sudeste 21 Este 0 -- -- 55
2019-05-19 18:00:00 23.8 19 Sudeste 23 Este 0 -- -- 49
2019-05-19 17:00:00 22.8 10 Sudoeste 22 Sudoeste 0 -- -- 52
2019-05-19 16:00:00 22.2 8 Sudoeste 28 Sudeste 0 -- -- 52
2019-05-19 15:00:00 22.5 27 Sudeste 36 Este 0 -- -- 52
2019-05-19 14:00:00 23.2 18 Sudeste 30 Sudeste 0 -- -- 52
2019-05-19 13:00:00 22.8 17 Sur 34 Sur 0 -- -- 52
2019-05-19 12:00:00 21.4 15 Sur 19 Sudeste 0 -- -- 53
2019-05-19 11:00:00 22.7 6 Sudeste 10 Sur 0 -- -- 50
2019-05-19 10:00:00 22.2 6 Sudeste 12 Sudeste 0 -- -- 53
2019-05-19 09:00:00 20.8 9 Nordeste 13 Nordeste 0 -- -- 53
2019-05-19 08:00:00 18.5 6 Norte 11 Norte 0 -- -- 61
2019-05-19 07:00:00 20.3 5 Noroeste 13 Oeste 0 -- -- 63
2019-05-19 06:00:00 19.8 5 Norte 15 Este 0 -- -- 62
2019-05-19 05:00:00 21 6 Este 15 Este 0 -- -- 62
2019-05-19 04:00:00 19.5 4 Oeste 8 Oeste 0 -- -- 61
2019-05-19 03:00:00 19.6 3 Este 15 Sudeste 0 -- -- 64
2019-05-19 02:00:00 20.1 10 Sur 14 Sur 0 -- -- 65
2019-05-19 01:00:00 21.1 8 Sudoeste 17 Sudeste 0 -- -- 64
2019-05-19 00:00:00 20.3 13 Sudeste 28 Este 0 -- -- 64
2019-05-18 23:00:00 19 17 Sudeste 22 Sudeste 0 -- -- 60
2019-05-18 22:00:00 20.2 12 Sudeste 16 Sudeste 0 -- -- 59
2019-05-18 21:00:00 21.5 8 Sudeste 15 Sudeste 0 -- -- 58
2019-05-18 20:00:00 22.3 9 Sur 23 Sur 0 -- -- 55
2019-05-18 19:00:00 22 14 Sur 21 Sur 0 -- -- 54
2019-05-18 18:00:00 21.6 15 Sudeste 25 Sudeste 0 -- -- 52
2019-05-18 17:00:00 24.1 16 Sudeste 19 Este 0 -- -- 46
2019-05-18 16:00:00 23.5 5 Sudoeste 14 Oeste 0 -- -- 47
2019-05-18 15:00:00 23.4 8 Sudoeste 14 Sudoeste 0 -- -- 50
2019-05-18 14:00:00 24.1 6 Sudeste 17 Sudeste 0 -- -- 49
2019-05-18 13:00:00 21.5 11 Sudeste 15 Sur 0 -- -- 54
2019-05-18 12:00:00 23.5 8 Oeste 13 Oeste 0 -- -- 53
2019-05-18 11:00:00 -- 7 Sudoeste 15 Sur 0 -- -- 61
2019-05-18 10:00:00 21.4 6 Sur 13 Este 0 -- -- 63
2019-05-18 09:00:00 20 11 Sudeste 19 Sudeste 0 -- -- 65
2019-05-18 08:00:00 19.6 7 Sudeste 11 Sudeste 0 -- -- 65
2019-05-18 07:00:00 20.1 6 Sur 10 Sudeste 0 -- -- 65
2019-05-18 06:00:00 20.4 6 Sudeste 13 Sur 0 -- -- 66
2019-05-18 05:00:00 19.2 13 Este 20 Este 0 -- -- 66
2019-05-18 04:00:00 20.2 5 Sudeste 8 Este 0 -- -- 66
2019-05-18 03:00:00 19.3 3 Sur 10 Sudoeste 0 -- -- 66
2019-05-18 02:00:00 20.7 7 Sudoeste 19 Sudoeste 0 -- -- 66
2019-05-18 01:00:00 21.6 11 Sudoeste 20 Oeste 0 -- -- 66
2019-05-18 00:00:00 20.6 12 Sur 15 Sur 0 -- -- 66
2019-05-17 23:00:00 20.4 9 Sudeste 13 Sur 0 -- -- 66
2019-05-17 22:00:00 21.2 12 Sudeste 22 Sudeste 0 -- -- 64
2019-05-17 21:00:00 21.2 14 Sudeste 22 Sudeste 0 -- -- 64
2019-05-17 20:00:00 22.1 9 Sudeste 13 Sur 0 -- -- 64
2019-05-17 19:00:00 22.2 9 Sur 18 Sur 0 -- -- 58
2019-05-17 18:00:00 23.2 11 Sur 22 Sur 0 -- -- 54
2019-05-17 17:00:00 24 10 Sur 14 Sur 0 -- -- 53
2019-05-17 16:00:00 22.2 9 Sur 12 Sudeste 0 -- -- 56
2019-05-17 15:00:00 25.1 6 Sur 10 Sur 0 -- -- 49
2019-05-17 14:00:00 24.6 6 Sur 11 Sur 0 -- -- 52
2019-05-17 13:00:00 23 7 Sudeste 12 Sudoeste 0 -- -- 55
2019-05-17 12:00:00 24.6 8 Sudoeste 18 Oeste 0 -- -- 54
2019-05-17 11:00:00 21.7 13 Oeste 19 Oeste 0 -- -- 58
2019-05-17 10:00:00 23.1 11 Oeste 15 Noroeste 0 -- -- 60
2019-05-17 09:00:00 21.5 9 Oeste 16 Oeste 0 -- -- 62
2019-05-17 08:00:00 22 5 Oeste 14 Oeste 0 -- -- 66
2019-05-17 07:00:00 20.5 7 Oeste 13 Oeste 0 -- -- 67
2019-05-17 06:00:00 20 5 Oeste 8 Oeste 0 -- -- 67
2019-05-17 05:00:00 20.1 2 Sur 7 Sur 0 -- -- 66
2019-05-17 04:00:00 -- 8 Sudeste 14 Sur 0 -- -- 67
2019-05-17 03:00:00 19.9 9 Sudeste 19 Sudeste 0 -- -- 66
2019-05-17 02:00:00 -- 15 Sudeste 19 Sudeste 0 -- -- 67
2019-05-17 01:00:00 17 19 Sudeste 30 Este 0 -- -- 67
2019-05-17 00:00:00 18.4 20 Sudeste 35 Este 0 -- -- 64